Time;durP1;ratioP1;P1;durP2;ratioP2;P2;SDS_P1;SDS_P2;PMS_P1;PMS_P2;Temp;Humidity;BMP_temperature;BMP_pressure;BME280_temperature;BME280_humidity;BME280_pressure;Samples;Min_cycle;Max_cycle;Signal;HPM_P1;HPM_P2
2023/08/08 00:01:01;;;;;;;0.95;0.55;;;;;;;19.49;49.26;99551.63;4480870;32;34457;-68
2023/08/08 00:03:29;;;;;;;0.57;0.40;;;;;;;18.94;51.10;99555.22;4481769;32;34615;-67
2023/08/08 00:05:57;;;;;;;2.03;0.88;;;;;;;19.38;49.40;99562.88;4484005;32;33466;-68
2023/08/08 00:08:24;;;;;;;0.55;0.40;;;;;;;19.52;49.27;99558.59;4479447;32;34366;-68
2023/08/08 00:10:52;;;;;;;3.15;1.10;;;;;;;19.76;48.01;99555.75;4482610;32;34858;-68
2023/08/08 00:13:20;;;;;;;0.28;0.28;;;;;;;19.61;48.51;99570.22;4481223;32;33921;-67
2023/08/08 00:15:47;;;;;;;1.75;0.73;;;;;;;19.64;48.25;99564.47;4481876;32;33652;-67
2023/08/08 00:18:16;;;;;;;0.65;0.43;;;;;;;19.30;49.22;99566.47;4481900;32;34663;-67
2023/08/08 00:20:43;;;;;;;0.93;0.65;;;;;;;19.45;48.83;99569.28;4478409;32;35592;-66
2023/08/08 00:23:10;;;;;;;0.75;0.47;;;;;;;19.00;50.13;99568.06;4481325;32;34883;-67
2023/08/08 00:25:38;;;;;;;2.00;0.90;;;;;;;19.21;49.77;99574.81;4484977;32;33244;-67
2023/08/08 00:28:06;;;;;;;1.73;0.70;;;;;;;19.09;50.00;99571.63;4481708;32;34910;-67
2023/08/08 00:30:33;;;;;;;0.73;0.37;;;;;;;19.15;49.84;99578.22;4482981;32;35266;-66
2023/08/08 00:33:04;;;;;;;1.35;0.62;;;;;;;19.28;49.52;99570.38;4476863;32;33745;-66
2023/08/08 00:35:32;;;;;;;0.40;0.40;;;;;;;19.08;50.08;99570.78;4483268;32;33198;-66
2023/08/08 00:37:59;;;;;;;3.58;0.65;;;;;;;18.97;50.40;99573.87;4483820;32;34188;-66
2023/08/08 00:40:27;;;;;;;0.98;0.65;;;;;;;18.89;50.36;99565.75;4484472;32;33731;-66
2023/08/08 00:42:55;;;;;;;0.95;0.70;;;;;;;18.65;51.09;99566.59;4482264;32;35072;-67
2023/08/08 00:45:22;;;;;;;1.17;0.57;;;;;;;18.65;51.23;99563.91;4482452;32;34709;-67
2023/08/08 00:47:50;;;;;;;1.15;0.70;;;;;;;18.61;51.57;99568.78;4483208;32;34744;-67
2023/08/08 00:50:19;;;;;;;1.27;0.60;;;;;;;18.84;50.83;99565.41;4480029;32;33832;-66
2023/08/08 00:52:47;;;;;;;1.60;0.85;;;;;;;18.79;50.92;99565.94;4482645;32;33817;-66
2023/08/08 00:55:16;;;;;;;1.17;0.73;;;;;;;18.56;51.65;99573.03;4483878;32;32824;-67
2023/08/08 00:57:44;;;;;;;3.33;0.80;;;;;;;18.71;51.30;99568.59;4484174;32;34482;-66
2023/08/08 01:00:11;;;;;;;0.88;0.62;;;;;;;18.58;51.65;99577.25;4483648;32;33835;-67
2023/08/08 01:02:39;;;;;;;0.65;0.43;;;;;;;18.58;51.74;99571.84;4484035;32;34632;-67
2023/08/08 01:05:08;;;;;;;1.30;0.70;;;;;;;18.34;52.36;99566.44;4482168;32;34067;-67
2023/08/08 01:07:35;;;;;;;1.55;0.90;;;;;;;18.13;52.92;99575.03;4483378;32;32427;-67
2023/08/08 01:10:07;;;;;;;0.68;0.62;;;;;;;18.34;52.54;99571.84;4480872;32;34942;-67
2023/08/08 01:12:43;;;;;;;1.10;0.62;;;;;;;18.34;52.64;99567.28;4473816;32;33841;-66
2023/08/08 01:15:11;;;;;;;1.12;0.93;;;;;;;18.23;53.05;99569.47;4482713;32;33305;-66
2023/08/08 01:17:39;;;;;;;1.65;0.93;;;;;;;18.32;52.86;99572.00;4474503;32;33412;-66
2023/08/08 01:20:08;;;;;;;1.37;0.82;;;;;;;18.40;52.64;99568.47;4467212;32;33698;-66
2023/08/08 01:22:40;;;;;;;0.75;0.52;;;;;;;18.59;52.05;99564.56;4480475;32;33585;-66
2023/08/08 01:25:08;;;;;;;1.33;0.80;;;;;;;17.78;54.44;99571.59;4484469;32;34290;-66
2023/08/08 01:27:36;;;;;;;3.35;0.62;;;;;;;17.78;54.42;99560.75;4483470;32;33792;-66
2023/08/08 01:30:06;;;;;;;0.32;0.30;;;;;;;17.65;54.92;99568.47;4481179;32;33787;-66
2023/08/08 01:32:34;;;;;;;0.98;0.68;;;;;;;17.66;54.85;99564.78;4482344;32;34056;-67
2023/08/08 01:35:02;;;;;;;1.45;0.55;;;;;;;17.98;54.21;99557.75;4480046;32;32814;-68
2023/08/08 01:37:51;;;;;;;2.75;1.40;;;;;;;17.75;55.09;99550.22;4482936;32;33660;-67
2023/08/08 01:40:19;;;;;;;0.65;0.50;;;;;;;17.67;54.78;99566.47;4444818;32;34012;-67
2023/08/08 01:42:48;;;;;;;1.85;0.95;;;;;;;17.49;55.60;99558.44;4432339;32;33635;-68
2023/08/08 01:45:16;;;;;;;2.22;0.88;;;;;;;17.51;55.46;99559.13;4423974;32;34209;-67
2023/08/08 01:47:50;;;;;;;1.65;0.82;;;;;;;17.65;55.18;99557.66;4445022;32;34775;-67
2023/08/08 01:50:17;;;;;;;0.47;0.40;;;;;;;17.56;55.53;99564.91;4446830;32;34930;-67
2023/08/08 01:52:45;;;;;;;0.98;0.68;;;;;;;17.59;55.58;99571.84;4445701;32;34080;-67
2023/08/08 01:55:13;;;;;;;1.45;0.85;;;;;;;17.46;55.88;99573.16;4445741;32;34186;-67
2023/08/08 01:57:40;;;;;;;0.85;0.57;;;;;;;17.57;55.66;99569.31;4449710;32;33810;-67
2023/08/08 02:00:09;;;;;;;1.20;0.62;;;;;;;17.54;55.38;99572.34;4445845;32;33758;-67
2023/08/08 02:02:41;;;;;;;3.80;0.88;;;;;;;17.25;56.20;99569.19;4445956;32;34287;-67
2023/08/08 02:05:09;;;;;;;0.57;0.47;;;;;;;17.07;57.28;99580.06;4445721;32;35326;-67
2023/08/08 02:07:37;;;;;;;1.15;0.65;;;;;;;17.43;55.89;99575.31;4441912;32;34782;-67
2023/08/08 02:10:04;;;;;;;0.82;0.50;;;;;;;17.34;56.06;99570.91;4435056;32;34311;-67
2023/08/08 02:12:32;;;;;;;2.25;1.02;;;;;;;17.58;55.43;99583.69;4474718;32;33632;-67
2023/08/08 02:15:00;;;;;;;1.37;0.50;;;;;;;17.44;55.91;99583.28;4483346;32;33130;-67
2023/08/08 02:17:30;;;;;;;1.35;0.65;;;;;;;17.10;56.90;99591.41;4482020;32;33713;-67
2023/08/08 02:19:58;;;;;;;1.60;0.60;;;;;;;17.58;55.39;99584.53;4483522;32;34268;-66
2023/08/08 02:22:25;;;;;;;1.35;0.77;;;;;;;17.61;55.38;99578.78;4483372;32;34292;-65
2023/08/08 02:24:53;;;;;;;1.62;1.08;;;;;;;17.33;56.27;99594.38;4480897;32;34597;-66
2023/08/08 02:27:21;;;;;;;1.48;0.80;;;;;;;17.51;55.65;99588.06;4473330;32;34889;-66
2023/08/08 02:29:48;;;;;;;1.02;0.57;;;;;;;17.58;55.54;99594.50;4482787;32;34913;-66
2023/08/08 02:32:16;;;;;;;1.55;0.70;;;;;;;17.49;55.59;99598.19;4480647;32;35524;-66
2023/08/08 02:34:44;;;;;;;4.07;0.98;;;;;;;17.74;54.95;99591.00;4476277;32;34260;-66
2023/08/08 02:37:13;;;;;;;1.62;0.65;;;;;;;17.86;54.58;99611.38;4483687;32;33754;-66
2023/08/08 02:39:42;;;;;;;1.80;0.50;;;;;;;17.67;55.19;99607.06;4481603;32;35216;-66
2023/08/08 02:42:10;;;;;;;0.77;0.50;;;;;;;17.72;55.18;99606.56;4482121;32;34969;-66
2023/08/08 02:44:38;;;;;;;1.35;0.40;;;;;;;17.68;55.03;99611.44;4484293;32;33323;-66
2023/08/08 02:47:06;;;;;;;0.80;0.57;;;;;;;18.02;54.03;99614.13;4481208;32;34470;-66
2023/08/08 02:49:33;;;;;;;0.82;0.62;;;;;;;17.96;54.33;99616.66;4481740;32;33863;-66
2023/08/08 02:52:01;;;;;;;0.55;0.40;;;;;;;18.04;54.04;99603.13;4482826;32;34759;-66
2023/08/08 02:54:30;;;;;;;1.27;0.65;;;;;;;18.29;53.25;99609.44;4482843;32;35190;-66
2023/08/08 02:56:58;;;;;;;1.85;0.70;;;;;;;18.32;53.04;99620.78;4483091;32;33575;-66
2023/08/08 02:59:25;;;;;;;1.40;0.73;;;;;;;18.40;52.85;99611.81;4476893;32;34015;-66
2023/08/08 03:01:53;;;;;;;1.02;0.68;;;;;;;18.37;53.01;99620.28;4481236;32;33922;-66
2023/08/08 03:04:21;;;;;;;1.37;0.55;;;;;;;18.45;52.56;99614.03;4481469;32;34432;-66
2023/08/08 03:06:49;;;;;;;2.55;1.10;;;;;;;18.27;53.02;99614.19;4468872;32;34664;-68
2023/08/08 03:09:17;;;;;;;0.90;0.52;;;;;;;18.18;53.17;99613.31;4482151;32;35120;-69
2023/08/08 03:11:45;;;;;;;3.25;0.65;;;;;;;18.33;52.91;99610.78;4480816;32;35603;-69
2023/08/08 03:14:13;;;;;;;4.90;0.70;;;;;;;18.25;53.07;99625.19;4479778;32;33384;-69
2023/08/08 03:16:40;;;;;;;0.90;0.50;;;;;;;18.35;52.83;99619.59;4483320;32;33613;-69
2023/08/08 03:19:08;;;;;;;1.95;0.70;;;;;;;18.41;52.56;99624.34;4482549;32;33945;-69
2023/08/08 03:21:36;;;;;;;0.60;0.40;;;;;;;18.29;52.84;99629.25;4478754;32;34363;-69
2023/08/08 03:24:04;;;;;;;0.60;0.45;;;;;;;18.41;52.59;99634.34;4483073;32;33215;-68
2023/08/08 03:26:32;;;;;;;0.62;0.37;;;;;;;18.45;52.41;99631.12;4473864;32;34635;-68
2023/08/08 03:29:00;;;;;;;1.45;0.73;;;;;;;18.47;52.27;99642.66;4480848;32;32525;-68
2023/08/08 03:31:28;;;;;;;0.52;0.50;;;;;;;18.52;52.39;99636.72;4482159;32;33713;-68
2023/08/08 03:33:56;;;;;;;1.45;0.70;;;;;;;18.54;52.70;99634.69;4482204;32;34006;-69
2023/08/08 03:36:24;;;;;;;0.70;0.52;;;;;;;18.52;52.55;99643.00;4482970;32;33574;-68
2023/08/08 03:38:52;;;;;;;1.17;0.75;;;;;;;18.66;51.91;99644.19;4481704;32;35243;-68
2023/08/08 03:41:20;;;;;;;1.05;0.60;;;;;;;18.07;53.79;99646.12;4483551;32;32534;-69
2023/08/08 03:43:47;;;;;;;0.95;0.52;;;;;;;18.52;52.02;99656.56;4479923;32;33142;-70
2023/08/08 03:46:15;;;;;;;2.45;0.80;;;;;;;18.57;51.71;99662.31;4472964;32;33781;-67
2023/08/08 03:48:42;;;;;;;1.33;0.57;;;;;;;18.61;51.51;99652.81;4481744;32;34195;-68
2023/08/08 03:51:10;;;;;;;0.93;0.70;;;;;;;18.03;52.91;99656.44;4480704;32;34686;-68
2023/08/08 03:53:38;;;;;;;4.03;0.82;;;;;;;18.06;53.24;99657.97;4481269;32;33215;-68
2023/08/08 03:56:07;;;;;;;1.08;0.50;;;;;;;17.95;53.23;99659.13;4480535;32;33725;-68
2023/08/08 03:58:35;;;;;;;1.70;1.05;;;;;;;17.60;54.22;99660.16;4479764;32;33928;-68
2023/08/08 04:01:03;;;;;;;2.25;1.02;;;;;;;17.72;53.70;99655.28;4481573;32;34044;-68
2023/08/08 04:03:31;;;;;;;2.50;0.98;;;;;;;17.07;55.72;99664.72;4480541;32;33320;-68
2023/08/08 04:05:59;;;;;;;1.40;0.85;;;;;;;17.85;53.43;99674.69;4481278;32;34337;-68
2023/08/08 04:08:26;;;;;;;2.67;0.82;;;;;;;17.96;53.36;99673.53;4482471;32;33866;-68
2023/08/08 04:10:55;;;;;;;0.90;0.52;;;;;;;17.46;54.57;99680.53;4481413;32;33533;-68
2023/08/08 04:13:22;;;;;;;2.30;0.70;;;;;;;18.00;53.31;99677.59;4480895;32;33323;-67
2023/08/08 04:15:51;;;;;;;1.75;0.90;;;;;;;17.88;53.43;99683.31;4482282;32;34089;-67
2023/08/08 04:18:19;;;;;;;2.65;0.90;;;;;;;18.41;52.27;99685.84;4480960;32;35177;-68
2023/08/08 04:20:47;;;;;;;1.62;0.73;;;;;;;18.24;53.11;99691.22;4481775;32;34764;-68
2023/08/08 04:23:14;;;;;;;0.82;0.45;;;;;;;18.55;52.37;99685.16;4481024;32;33920;-68
2023/08/08 04:25:42;;;;;;;2.83;1.33;;;;;;;18.25;52.66;99690.19;4481645;32;35210;-68
2023/08/08 04:28:10;;;;;;;1.60;0.70;;;;;;;18.28;53.20;99689.88;4482203;32;35142;-69
2023/08/08 04:30:37;;;;;;;1.65;0.65;;;;;;;18.09;53.42;99699.13;4480706;32;33527;-68
2023/08/08 04:33:05;;;;;;;1.77;0.90;;;;;;;18.79;51.71;99693.34;4479348;32;33382;-69
2023/08/08 04:35:33;;;;;;;1.60;0.82;;;;;;;18.97;51.52;99695.91;4481885;32;33738;-69
2023/08/08 04:38:00;;;;;;;5.12;1.10;;;;;;;18.92;52.01;99702.88;4482495;32;33910;-69
2023/08/08 04:40:28;;;;;;;6.35;1.08;;;;;;;19.21;51.09;99689.59;4481991;32;33538;-69
2023/08/08 04:42:56;;;;;;;2.05;0.88;;;;;;;19.30;50.45;99696.72;4481556;32;34097;-69
2023/08/08 04:45:23;;;;;;;3.33;0.98;;;;;;;19.58;49.56;99696.31;4483147;32;34701;-69
2023/08/08 04:47:51;;;;;;;2.50;1.20;;;;;;;19.72;49.52;99697.50;4477286;32;33385;-70
2023/08/08 04:50:19;;;;;;;1.17;0.73;;;;;;;19.70;49.04;99702.25;4479211;32;34590;-69
2023/08/08 04:52:46;;;;;;;1.42;0.95;;;;;;;19.85;48.82;99705.09;4480177;32;34383;-69
2023/08/08 04:55:14;;;;;;;0.88;0.65;;;;;;;19.99;47.98;99701.63;4476094;32;34566;-69
2023/08/08 04:57:41;;;;;;;1.33;0.70;;;;;;;19.96;48.00;99704.69;4482309;32;34917;-69
2023/08/08 05:00:10;;;;;;;0.70;0.47;;;;;;;20.13;47.95;99706.34;4479510;32;34950;-68
2023/08/08 05:02:39;;;;;;;1.98;1.17;;;;;;;20.28;47.39;99711.00;4480548;32;33181;-69
2023/08/08 05:05:07;;;;;;;0.90;0.75;;;;;;;20.39;47.11;99716.91;4478851;32;33587;-72
2023/08/08 05:07:37;;;;;;;1.55;0.95;;;;;;;20.50;45.70;99709.34;4473159;32;34502;-71
2023/08/08 05:10:05;;;;;;;1.87;0.65;;;;;;;20.56;45.93;99714.09;4481999;32;33892;-72
2023/08/08 05:12:33;;;;;;;3.60;1.40;;;;;;;20.68;46.18;99718.94;4484271;32;32966;-72
2023/08/08 05:15:00;;;;;;;3.42;1.17;;;;;;;20.70;44.78;99714.16;4483074;32;33878;-72
2023/08/08 05:17:33;;;;;;;2.55;0.93;;;;;;;20.42;47.24;99718.41;4484410;32;34027;-72
2023/08/08 05:20:01;;;;;;;4.65;0.93;;;;;;;20.30;46.79;99722.56;4483079;32;34666;-71
2023/08/08 05:22:29;;;;;;;2.20;1.20;;;;;;;20.28;47.10;99733.59;4484035;32;33096;-72
2023/08/08 05:24:56;;;;;;;2.72;1.45;;;;;;;20.47;46.36;99729.59;4477173;32;33440;-73
2023/08/08 05:27:24;;;;;;;3.00;1.27;;;;;;;20.66;46.05;99720.16;4470373;32;34728;-73
2023/08/08 05:29:52;;;;;;;7.15;1.52;;;;;;;20.08;48.41;99729.63;4474757;32;33939;-71
2023/08/08 05:32:19;;;;;;;3.87;0.73;;;;;;;20.40;47.59;99731.34;4473675;32;31758;-72
2023/08/08 05:34:49;;;;;;;2.25;0.95;;;;;;;20.87;45.63;99735.81;4473674;32;33688;-72
2023/08/08 05:37:16;;;;;;;4.87;3.05;;;;;;;20.85;45.42;99735.16;4474706;32;34726;-73
2023/08/08 05:39:44;;;;;;;1.27;0.73;;;;;;;20.68;46.48;99735.28;4473585;32;34396;-74
2023/08/08 05:42:12;;;;;;;1.45;0.88;;;;;;;21.28;45.24;99735.47;4474733;32;35205;-74
2023/08/08 05:44:44;;;;;;;3.97;1.60;;;;;;;20.87;46.05;99733.94;4475561;32;33584;-74
2023/08/08 05:47:11;;;;;;;2.95;1.35;;;;;;;21.05;45.62;99739.06;4471166;32;34995;-73
2023/08/08 05:49:42;;;;;;;3.45;1.02;;;;;;;21.15;44.82;99736.97;4472077;32;34312;-73
2023/08/08 05:52:10;;;;;;;2.60;0.98;;;;;;;20.54;46.08;99749.63;4472166;32;33198;-73
2023/08/08 05:54:38;;;;;;;1.92;0.90;;;;;;;20.56;46.09;99744.84;4472357;32;33553;-73
2023/08/08 05:57:06;;;;;;;1.85;1.02;;;;;;;20.53;47.80;99747.94;4471824;32;34231;-74
2023/08/08 05:59:34;;;;;;;3.45;1.12;;;;;;;20.37;49.02;99750.72;4471300;32;33262;-74
2023/08/08 06:02:01;;;;;;;1.48;1.27;;;;;;;20.54;47.54;99743.34;4472578;32;33187;-73
2023/08/08 06:04:30;;;;;;;2.03;1.30;;;;;;;20.72;47.10;99738.47;4473344;32;33325;-73
2023/08/08 06:06:58;;;;;;;2.65;1.23;;;;;;;20.25;48.63;99729.34;4473900;32;35108;-74
2023/08/08 06:09:25;;;;;;;5.03;1.48;;;;;;;20.32;48.39;99734.94;4474106;32;33815;-73
2023/08/08 06:11:53;;;;;;;3.75;1.00;;;;;;;20.03;48.36;99735.56;4472585;32;34770;-73
2023/08/08 06:14:21;;;;;;;2.62;1.17;;;;;;;20.31;47.14;99738.69;4439909;32;33770;-74
2023/08/08 06:16:48;;;;;;;2.05;1.12;;;;;;;20.59;47.86;99747.22;4433758;32;35598;-74
2023/08/08 06:19:16;;;;;;;5.93;1.77;;;;;;;20.11;48.66;99749.13;4441486;32;33789;-75
2023/08/08 06:21:44;;;;;;;2.80;1.15;;;;;;;19.72;48.44;99755.38;4441273;32;33533;-72
2023/08/08 06:24:11;;;;;;;2.97;1.35;;;;;;;19.77;48.62;99750.28;4440402;32;33563;-73
2023/08/08 06:26:39;;;;;;;2.60;1.27;;;;;;;20.21;47.66;99760.62;4438504;32;34899;-74
2023/08/08 06:29:07;;;;;;;4.75;1.15;;;;;;;19.87;48.66;99754.63;4439649;32;34792;-73
2023/08/08 06:31:34;;;;;;;3.75;1.42;;;;;;;20.23;48.59;99757.75;4437452;32;33452;-72
2023/08/08 06:34:02;;;;;;;1.85;0.80;;;;;;;20.38;47.13;99752.41;4439656;32;33618;-71
2023/08/08 06:36:30;;;;;;;1.10;0.75;;;;;;;20.15;47.98;99763.22;4439050;32;34258;-71
2023/08/08 06:38:57;;;;;;;3.10;1.02;;;;;;;20.32;47.36;99761.25;4439002;32;33643;-71
2023/08/08 06:41:25;;;;;;;2.55;0.93;;;;;;;19.82;48.05;99759.75;4440072;32;33376;-71
2023/08/08 06:43:53;;;;;;;2.25;1.08;;;;;;;19.99;47.99;99750.53;4439234;32;33485;-71
2023/08/08 06:46:20;;;;;;;2.35;1.12;;;;;;;20.00;48.53;99765.84;4465864;32;33862;-71
2023/08/08 06:48:50;;;;;;;2.80;1.20;;;;;;;20.24;47.14;99757.56;4474349;32;34638;-71
2023/08/08 06:51:18;;;;;;;3.10;1.37;;;;;;;20.62;47.95;99754.19;4476198;32;34631;-72
2023/08/08 06:53:45;;;;;;;2.00;1.08;;;;;;;20.01;47.90;99759.38;4482328;32;32909;-72
2023/08/08 06:56:13;;;;;;;2.87;1.30;;;;;;;20.18;46.90;99754.69;4477224;32;34222;-73
2023/08/08 06:58:40;;;;;;;2.10;1.37;;;;;;;20.58;46.60;99756.41;4481846;32;34015;-72
2023/08/08 07:01:09;;;;;;;3.12;1.30;;;;;;;19.81;47.26;99767.06;4474249;32;33460;-72
2023/08/08 07:03:37;;;;;;;1.58;1.00;;;;;;;19.96;47.33;99764.47;4457446;32;33890;-72
2023/08/08 07:06:05;;;;;;;2.22;1.40;;;;;;;19.61;47.72;99765.72;4460236;32;35453;-72
2023/08/08 07:08:33;;;;;;;3.47;1.40;;;;;;;20.26;47.86;99762.84;4444637;32;34440;-71
2023/08/08 07:11:01;;;;;;;2.80;1.20;;;;;;;19.84;47.94;99769.44;4444683;32;32116;-71
2023/08/08 07:13:28;;;;;;;3.83;1.67;;;;;;;19.82;47.16;99774.19;4444169;32;33669;-73
2023/08/08 07:15:56;;;;;;;3.37;1.33;;;;;;;20.13;47.31;99774.28;4443996;32;33660;-73
2023/08/08 07:18:24;;;;;;;1.10;0.75;;;;;;;20.37;46.20;99761.59;4446492;32;34723;-72
2023/08/08 07:20:52;;;;;;;3.60;1.55;;;;;;;19.70;47.24;99770.97;4444801;32;33289;-71
2023/08/08 07:23:19;;;;;;;3.33;1.33;;;;;;;20.49;46.61;99773.75;4444754;32;34805;-72
2023/08/08 07:25:47;;;;;;;4.47;1.37;;;;;;;19.98;46.89;99773.28;4443963;32;33726;-72
2023/08/08 07:28:18;;;;;;;4.37;1.45;;;;;;;20.32;46.89;99777.56;4444005;32;32564;-72
2023/08/08 07:30:45;;;;;;;1.95;1.02;;;;;;;20.64;46.27;99776.59;4444415;32;33256;-71
2023/08/08 07:33:13;;;;;;;4.40;1.37;;;;;;;19.99;47.29;99778.53;4443844;32;34689;-71
2023/08/08 07:35:41;;;;;;;2.05;0.88;;;;;;;20.04;46.77;99788.91;4467742;32;33635;-72
2023/08/08 07:38:09;;;;;;;5.35;1.35;;;;;;;20.76;45.59;99791.47;4473237;32;35002;-71
2023/08/08 07:40:36;;;;;;;4.68;1.33;;;;;;;21.07;45.82;99794.16;4470881;32;34159;-71
2023/08/08 07:43:04;;;;;;;8.05;1.70;;;;;;;21.17;45.42;99804.81;4471530;32;32138;-72
2023/08/08 07:45:32;;;;;;;2.50;1.15;;;;;;;20.92;45.93;99799.53;4472261;32;35055;-72
2023/08/08 07:47:59;;;;;;;2.55;1.10;;;;;;;21.04;45.90;99801.84;4472848;32;33757;-72
2023/08/08 07:50:27;;;;;;;4.72;2.17;;;;;;;20.94;43.53;99797.47;4473479;32;33248;-71
2023/08/08 07:52:55;;;;;;;1.50;0.75;;;;;;;21.12;44.63;99796.31;4471118;32;34751;-72
2023/08/08 07:55:23;;;;;;;1.55;0.90;;;;;;;21.42;43.34;99800.03;4471920;32;34047;-72
2023/08/08 07:57:50;;;;;;;5.22;1.92;;;;;;;21.04;44.43;99793.69;4473152;32;34531;-74
2023/08/08 08:00:18;;;;;;;5.72;1.60;;;;;;;20.82;44.92;99793.47;4472235;32;33169;-72
2023/08/08 08:02:46;;;;;;;3.62;1.23;;;;;;;20.58;45.76;99794.47;4472170;32;33432;-73
2023/08/08 08:05:14;;;;;;;2.53;1.08;;;;;;;21.37;44.55;99788.84;4471228;32;34318;-73
2023/08/08 08:07:43;;;;;;;3.37;1.15;;;;;;;21.03;44.77;99792.00;4470473;32;32324;-72
2023/08/08 08:10:13;;;;;;;3.75;1.42;;;;;;;21.48;43.75;99793.88;4471264;32;34062;-74
2023/08/08 08:12:41;;;;;;;1.80;1.10;;;;;;;21.94;43.67;99801.91;4472793;32;32774;-73
2023/08/08 08:15:09;;;;;;;4.10;1.12;;;;;;;21.42;43.46;99801.94;4471544;32;35508;-74
2023/08/08 08:17:37;;;;;;;1.92;1.02;;;;;;;21.31;42.94;99800.44;4470613;32;32406;-73
2023/08/08 08:20:10;;;;;;;2.08;1.05;;;;;;;21.48;43.46;99795.75;4473246;32;32744;-72
2023/08/08 08:22:38;;;;;;;6.20;1.75;;;;;;;21.81;42.48;99794.38;4471291;32;33035;-75
2023/08/08 08:25:08;;;;;;;1.05;0.60;;;;;;;21.80;41.68;99800.88;4462656;32;34045;-78
2023/08/08 08:27:36;;;;;;;2.30;0.95;;;;;;;21.64;42.37;99811.94;4469303;31;33102;-77
2023/08/08 08:30:09;;;;;;;2.62;1.15;;;;;;;21.76;41.37;99806.88;4472129;31;31627;-77
2023/08/08 08:32:39;;;;;;;3.60;1.35;;;;;;;21.55;41.96;99816.59;4471707;31;33757;-76
2023/08/08 08:35:07;;;;;;;4.47;0.95;;;;;;;21.67;41.56;99816.16;4471816;31;35005;-76
2023/08/08 08:37:35;;;;;;;4.47;1.80;;;;;;;21.26;41.79;99821.94;4471353;32;33481;-74
2023/08/08 08:40:06;;;;;;;3.47;1.15;;;;;;;21.60;41.82;99822.34;4475532;31;33103;-74
2023/08/08 08:42:35;;;;;;;2.87;1.27;;;;;;;22.09;41.21;99824.59;4471829;31;35134;-76
2023/08/08 08:45:06;;;;;;;2.62;0.93;;;;;;;21.67;42.84;99825.19;4473603;31;33865;-76
2023/08/08 08:47:36;;;;;;;2.00;0.62;;;;;;;21.35;43.98;99816.28;4473901;31;34568;-76
2023/08/08 08:50:04;;;;;;;3.37;1.30;;;;;;;21.59;43.48;99820.66;4479417;32;32123;-77
2023/08/08 08:52:32;;;;;;;2.75;1.02;;;;;;;21.74;43.88;99817.13;4469490;31;33961;-77
2023/08/08 08:55:00;;;;;;;1.67;0.93;;;;;;;22.04;42.40;99815.25;4471848;31;34672;-77
2023/08/08 08:57:28;;;;;;;3.85;1.55;;;;;;;22.32;41.19;99815.50;4467857;32;32012;-73
2023/08/08 08:59:56;;;;;;;3.37;1.05;;;;;;;21.94;42.93;99815.53;4472065;31;33516;-73
2023/08/08 09:02:24;;;;;;;4.12;1.45;;;;;;;22.16;41.33;99810.25;4472529;31;33629;-74
2023/08/08 09:04:52;;;;;;;2.62;1.25;;;;;;;22.63;40.07;99812.53;4470450;31;34280;-74
2023/08/08 09:07:21;;;;;;;3.80;1.33;;;;;;;22.61;40.37;99805.59;4465214;31;32225;-74
2023/08/08 09:09:48;;;;;;;2.17;1.17;;;;;;;22.62;39.43;99810.00;4466469;32;34161;-74
2023/08/08 09:12:16;;;;;;;5.32;2.08;;;;;;;22.03;41.29;99811.69;4473693;32;33786;-73
2023/08/08 09:14:46;;;;;;;4.82;1.73;;;;;;;21.92;41.11;99819.47;4467411;31;33509;-75
2023/08/08 09:17:14;;;;;;;1.48;0.80;;;;;;;22.27;41.08;99807.84;4470983;31;32673;-76
2023/08/08 09:19:46;;;;;;;2.80;1.15;;;;;;;22.61;41.40;99808.31;4470392;32;34127;-77
2023/08/08 09:22:14;;;;;;;3.17;1.40;;;;;;;22.58;39.99;99814.16;4471911;32;33493;-75
2023/08/08 09:24:42;;;;;;;3.35;1.52;;;;;;;22.93;40.34;99810.59;4470168;32;33830;-74
2023/08/08 09:27:10;;;;;;;3.75;1.23;;;;;;;22.51;41.38;99820.38;4474038;31;33486;-75
2023/08/08 09:29:37;;;;;;;3.47;1.02;;;;;;;22.61;41.15;99809.16;4473812;31;33405;-74
2023/08/08 09:32:06;;;;;;;2.45;0.90;;;;;;;22.68;40.62;99817.41;4474066;31;33332;-73
2023/08/08 09:34:34;;;;;;;2.33;1.30;;;;;;;22.48;39.56;99809.84;4474523;31;33651;-73
2023/08/08 09:37:03;;;;;;;3.28;1.30;;;;;;;22.44;39.94;99813.09;4473712;31;35676;-74
2023/08/08 09:39:31;;;;;;;4.37;1.62;;;;;;;21.91;41.65;99823.25;4473107;31;34806;-74
2023/08/08 09:42:01;;;;;;;5.22;1.25;;;;;;;22.40;40.69;99817.25;4475407;31;33733;-75
2023/08/08 09:44:31;;;;;;;4.18;0.85;;;;;;;22.42;40.76;99813.31;4472144;31;33710;-73
2023/08/08 09:46:59;;;;;;;1.35;0.80;;;;;;;22.29;40.71;99813.13;4472128;31;34569;-74
2023/08/08 09:49:27;;;;;;;2.53;0.82;;;;;;;22.41;40.56;99813.53;4471882;31;34355;-73
2023/08/08 09:51:55;;;;;;;2.30;0.85;;;;;;;22.04;40.31;99812.53;4479023;32;35026;-72
2023/08/08 09:54:23;;;;;;;5.80;1.55;;;;;;;22.52;39.17;99804.84;4480988;32;34837;-72
2023/08/08 09:56:51;;;;;;;2.15;1.12;;;;;;;22.69;38.24;99810.91;4468732;32;33854;-72
2023/08/08 09:59:19;;;;;;;3.03;1.37;;;;;;;22.49;40.08;99816.97;4473271;32;34257;-72
2023/08/08 10:01:47;;;;;;;2.87;1.12;;;;;;;22.68;39.89;99809.22;4473784;32;31970;-73
2023/08/08 10:04:16;;;;;;;2.58;1.35;;;;;;;23.18;39.10;99799.31;4479723;32;32899;-74
2023/08/08 10:06:44;;;;;;;2.08;0.90;;;;;;;22.89;40.54;99802.94;4452962;32;34505;-74
2023/08/08 10:09:12;;;;;;;2.00;1.08;;;;;;;23.48;39.24;99806.31;4476238;32;33340;-74
2023/08/08 10:11:42;;;;;;;3.87;1.48;;;;;;;23.82;38.20;99804.72;4465058;32;33423;-70
2023/08/08 10:14:11;;;;;;;3.62;1.48;;;;;;;23.54;37.93;99804.69;4476494;32;34662;-74
2023/08/08 10:16:39;;;;;;;4.72;1.95;;;;;;;23.47;36.25;99801.91;4475313;32;33854;-71
2023/08/08 10:19:07;;;;;;;3.05;1.30;;;;;;;23.07;38.28;99800.66;4469529;31;34216;-72
2023/08/08 10:21:35;;;;;;;2.53;1.37;;;;;;;23.42;38.29;99803.53;4453638;32;33621;-73
2023/08/08 10:24:10;;;;;;;10.07;1.58;;;;;;;23.24;37.99;99799.38;4452612;32;34859;-73
2023/08/08 10:26:59;;;;;;;2.47;1.05;;;;;;;23.52;37.82;99800.44;4432949;32;33284;-72
2023/08/08 10:29:32;;;;;;;2.15;1.12;;;;;;;23.60;38.17;99798.44;4450957;32;33557;-72
2023/08/08 10:32:03;;;;;;;3.72;1.48;;;;;;;23.65;36.89;99801.41;4451554;32;33917;-73
2023/08/08 10:34:42;;;;;;;4.85;1.40;;;;;;;23.64;36.55;99791.53;4466955;32;35197;-73
2023/08/08 10:37:18;;;;;;;4.47;1.08;;;;;;;23.51;37.84;99785.13;4464700;32;33804;-72
2023/08/08 10:39:53;;;;;;;8.25;1.73;;;;;;;23.77;36.91;99788.06;4464671;32;33229;-72
2023/08/08 10:42:22;;;;;;;;;;;;;;;23.47;36.02;99782.78;4463184;31;33717;-73
2023/08/08 10:44:57;;;;;;;3.00;0.95;;;;;;;23.74;36.58;99791.22;4464472;32;34161;-73
2023/08/08 10:47:26;;;;;;;3.03;1.48;;;;;;;24.03;36.50;99781.94;4460675;32;34025;-72
2023/08/08 10:50:04;;;;;;;2.55;1.20;;;;;;;22.79;38.53;99784.16;4466111;32;31727;-73
2023/08/08 10:52:35;;;;;;;2.80;1.25;;;;;;;23.67;37.51;99782.09;4466242;32;33523;-73
2023/08/08 10:55:03;;;;;;;3.12;1.37;;;;;;;23.41;36.99;99783.56;4471597;32;33829;-74
2023/08/08 10:57:30;;;;;;;3.33;1.37;;;;;;;23.75;36.58;99781.94;4471440;31;33346;-74
2023/08/08 11:00:16;;;;;;;2.83;1.23;;;;;;;24.03;36.92;99779.19;4463431;32;34083;-73
2023/08/08 11:02:44;;;;;;;2.92;1.42;;;;;;;24.17;35.19;99771.91;4472292;31;33101;-74
2023/08/08 11:05:14;;;;;;;2.58;1.30;;;;;;;23.65;37.02;99778.69;4472236;31;34811;-73
2023/08/08 11:07:42;;;;;;;3.30;1.60;;;;;;;23.97;36.49;99781.91;4471418;32;33431;-73
2023/08/08 11:10:10;;;;;;;3.92;1.42;;;;;;;23.50;36.59;99776.06;4462402;31;33827;-73
2023/08/08 11:12:38;;;;;;;5.68;1.85;;;;;;;24.06;36.02;99775.22;4473582;31;33694;-72
2023/08/08 11:15:06;;;;;;;2.50;1.15;;;;;;;24.14;35.67;99772.31;4470482;31;32930;-73
2023/08/08 11:17:34;;;;;;;3.58;1.10;;;;;;;23.97;36.05;99771.81;4472070;32;33899;-74
2023/08/08 11:20:03;;;;;;;2.42;1.05;;;;;;;23.74;37.75;99773.97;4471137;32;33111;-74
2023/08/08 11:22:30;;;;;;;5.15;1.30;;;;;;;23.77;35.27;99768.94;4473695;32;32449;-75
2023/08/08 11:25:03;;;;;;;3.30;1.75;;;;;;;24.04;35.65;99769.94;4474383;32;35206;-77
2023/08/08 11:27:31;;;;;;;1.77;1.05;;;;;;;23.65;36.62;99765.88;4460589;32;34442;-75
2023/08/08 11:30:01;;;;;;;4.37;1.35;;;;;;;24.19;35.96;99769.81;4471387;32;32269;-74
2023/08/08 11:32:29;;;;;;;5.45;1.77;;;;;;;23.94;36.01;99769.47;4471781;32;33614;-75
2023/08/08 11:34:57;;;;;;;4.22;1.52;;;;;;;24.09;35.42;99764.72;4464505;32;35080;-75
2023/08/08 11:37:25;;;;;;;3.33;1.55;;;;;;;23.64;36.11;99766.94;4464872;32;34338;-75
2023/08/08 11:39:52;;;;;;;2.78;1.27;;;;;;;23.92;36.78;99763.38;4465445;32;33281;-77